sensor_id;sensor_type;location;lat;lon;timestamp;pressure;altitude;pressure_sealevel;temperature;humidity
11682;BME280;5897;42.640;23.310;2024-02-23T00:01:33;93628.56;;;7.50;78.47
11682;BME280;5897;42.640;23.310;2024-02-23T00:03:59;93629.88;;;7.61;77.65
11682;BME280;5897;42.640;23.310;2024-02-23T00:06:27;93638.28;;;7.44;76.24
11682;BME280;5897;42.640;23.310;2024-02-23T00:08:55;93615.81;;;7.34;76.98
11682;BME280;5897;42.640;23.310;2024-02-23T00:11:23;93608.84;;;7.37;76.93
11682;BME280;5897;42.640;23.310;2024-02-23T00:13:50;93627.97;;;7.42;77.33
11682;BME280;5897;42.640;23.310;2024-02-23T00:16:16;93643.81;;;7.56;76.74
11682;BME280;5897;42.640;23.310;2024-02-23T00:18:43;93615.81;;;7.34;77.66
11682;BME280;5897;42.640;23.310;2024-02-23T00:21:10;93641.88;;;7.57;76.53
11682;BME280;5897;42.640;23.310;2024-02-23T00:23:36;93648.84;;;7.35;77.32
11682;BME280;5897;42.640;23.310;2024-02-23T00:26:03;93651.22;;;7.29;77.51
11682;BME280;5897;42.640;23.310;2024-02-23T00:28:31;93634.75;;;7.27;77.18
11682;BME280;5897;42.640;23.310;2024-02-23T00:30:58;93635.31;;;7.19;77.65
11682;BME280;5897;42.640;23.310;2024-02-23T00:33:25;93628.75;;;7.20;77.27
11682;BME280;5897;42.640;23.310;2024-02-23T00:35:51;93622.78;;;7.32;77.50
11682;BME280;5897;42.640;23.310;2024-02-23T00:38:18;93631.53;;;7.36;77.21
11682;BME280;5897;42.640;23.310;2024-02-23T00:40:45;93620.72;;;7.59;75.11
11682;BME280;5897;42.640;23.310;2024-02-23T00:43:11;93624.59;;;7.38;77.51
11682;BME280;5897;42.640;23.310;2024-02-23T00:45:39;93605.78;;;7.38;78.07
11682;BME280;5897;42.640;23.310;2024-02-23T00:48:07;93620.16;;;7.67;74.87
11682;BME280;5897;42.640;23.310;2024-02-23T00:50:33;93593.38;;;7.44;78.82
11682;BME280;5897;42.640;23.310;2024-02-23T00:53:00;93601.75;;;7.46;81.03
11682;BME280;5897;42.640;23.310;2024-02-23T00:55:27;93596.59;;;7.36;79.57
11682;BME280;5897;42.640;23.310;2024-02-23T00:57:53;93593.69;;;7.27;79.38
11682;BME280;5897;42.640;23.310;2024-02-23T01:00:20;93604.66;;;7.36;79.86
11682;BME280;5897;42.640;23.310;2024-02-23T01:02:48;93600.41;;;7.38;79.15
11682;BME280;5897;42.640;23.310;2024-02-23T01:05:15;93599.47;;;7.45;78.56
11682;BME280;5897;42.640;23.310;2024-02-23T01:07:42;93585.22;;;7.48;78.53
11682;BME280;5897;42.640;23.310;2024-02-23T01:10:09;93568.16;;;7.38;78.54
11682;BME280;5897;42.640;23.310;2024-02-23T01:12:36;93597.91;;;7.47;77.87
11682;BME280;5897;42.640;23.310;2024-02-23T01:15:03;93591.69;;;7.11;82.74
11682;BME280;5897;42.640;23.310;2024-02-23T01:17:30;93564.56;;;7.25;80.53
11682;BME280;5897;42.640;23.310;2024-02-23T01:19:58;93599.97;;;7.20;81.93
11682;BME280;5897;42.640;23.310;2024-02-23T01:22:25;93579.84;;;7.09;79.49
11682;BME280;5897;42.640;23.310;2024-02-23T01:24:52;93593.03;;;7.23;78.66
11682;BME280;5897;42.640;23.310;2024-02-23T01:27:18;93551.53;;;6.85;78.36
11682;BME280;5897;42.640;23.310;2024-02-23T01:29:45;93579.91;;;7.05;78.56
11682;BME280;5897;42.640;23.310;2024-02-23T01:32:12;93587.84;;;7.12;78.08
11682;BME280;5897;42.640;23.310;2024-02-23T01:34:38;93571.75;;;6.89;78.95
11682;BME280;5897;42.640;23.310;2024-02-23T01:37:06;93574.84;;;6.88;80.34
11682;BME280;5897;42.640;23.310;2024-02-23T01:39:33;93576.94;;;6.80;79.62
11682;BME280;5897;42.640;23.310;2024-02-23T01:42:00;93566.69;;;6.95;79.71
11682;BME280;5897;42.640;23.310;2024-02-23T01:44:26;93561.38;;;7.11;78.07
11682;BME280;5897;42.640;23.310;2024-02-23T01:46:53;93557.00;;;7.20;77.83
11682;BME280;5897;42.640;23.310;2024-02-23T01:49:20;93561.38;;;7.30;76.66
11682;BME280;5897;42.640;23.310;2024-02-23T01:51:47;93568.84;;;7.23;76.59
11682;BME280;5897;42.640;23.310;2024-02-23T01:54:16;93560.78;;;7.23;77.43
11682;BME280;5897;42.640;23.310;2024-02-23T01:56:42;93544.84;;;7.12;77.85
11682;BME280;5897;42.640;23.310;2024-02-23T01:59:10;93553.53;;;7.20;77.85
11682;BME280;5897;42.640;23.310;2024-02-23T02:01:37;93550.38;;;7.25;78.02
11682;BME280;5897;42.640;23.310;2024-02-23T02:04:04;93523.22;;;7.19;78.28
11682;BME280;5897;42.640;23.310;2024-02-23T02:06:30;93541.69;;;7.17;78.48
11682;BME280;5897;42.640;23.310;2024-02-23T02:08:57;93553.28;;;7.14;78.06
11682;BME280;5897;42.640;23.310;2024-02-23T02:11:25;93551.00;;;7.13;77.99
11682;BME280;5897;42.640;23.310;2024-02-23T02:13:52;93538.03;;;7.08;79.04
11682;BME280;5897;42.640;23.310;2024-02-23T02:16:18;93537.56;;;6.93;78.93
11682;BME280;5897;42.640;23.310;2024-02-23T02:18:45;93549.59;;;7.24;77.98
11682;BME280;5897;42.640;23.310;2024-02-23T02:21:12;93561.81;;;7.09;78.01
11682;BME280;5897;42.640;23.310;2024-02-23T02:23:39;93550.63;;;7.11;78.64
11682;BME280;5897;42.640;23.310;2024-02-23T02:26:06;93564.34;;;7.36;76.04
11682;BME280;5897;42.640;23.310;2024-02-23T02:28:34;93544.84;;;7.12;86.46
11682;BME280;5897;42.640;23.310;2024-02-23T02:31:00;93546.44;;;7.10;84.87
11682;BME280;5897;42.640;23.310;2024-02-23T02:33:28;93555.25;;;7.10;84.07
11682;BME280;5897;42.640;23.310;2024-02-23T02:35:55;93549.06;;;7.13;79.52
11682;BME280;5897;42.640;23.310;2024-02-23T02:38:21;93560.81;;;7.19;79.87
11682;BME280;5897;42.640;23.310;2024-02-23T02:40:48;93552.91;;;7.12;80.48
11682;BME280;5897;42.640;23.310;2024-02-23T02:43:15;93551.19;;;7.41;83.24
11682;BME280;5897;42.640;23.310;2024-02-23T02:45:43;93555.66;;;7.48;84.22
11682;BME280;5897;42.640;23.310;2024-02-23T02:48:10;93550.22;;;7.51;81.90
11682;BME280;5897;42.640;23.310;2024-02-23T02:50:37;93555.63;;;7.67;83.85
11682;BME280;5897;42.640;23.310;2024-02-23T02:53:04;93553.88;;;7.41;81.24
11682;BME280;5897;42.640;23.310;2024-02-23T02:55:30;93552.81;;;7.55;79.47
11682;BME280;5897;42.640;23.310;2024-02-23T02:57:57;93545.22;;;7.69;79.94
11682;BME280;5897;42.640;23.310;2024-02-23T03:00:24;93553.66;;;7.71;77.62
11682;BME280;5897;42.640;23.310;2024-02-23T03:02:53;93542.47;;;7.53;80.19
11682;BME280;5897;42.640;23.310;2024-02-23T03:05:19;93559.47;;;7.86;76.64
11682;BME280;5897;42.640;23.310;2024-02-23T03:07:46;93553.53;;;7.59;77.04
11682;BME280;5897;42.640;23.310;2024-02-23T03:10:13;93561.13;;;7.44;78.02
11682;BME280;5897;42.640;23.310;2024-02-23T03:12:39;93558.50;;;7.41;78.13
11682;BME280;5897;42.640;23.310;2024-02-23T03:15:06;93555.66;;;7.48;78.04
11682;BME280;5897;42.640;23.310;2024-02-23T03:17:34;93561.44;;;7.66;77.33
11682;BME280;5897;42.640;23.310;2024-02-23T03:20:02;93560.41;;;7.40;77.05
11682;BME280;5897;42.640;23.310;2024-02-23T03:22:34;93558.03;;;7.26;78.18
11682;BME280;5897;42.640;23.310;2024-02-23T03:25:00;93562.56;;;7.29;79.04
11682;BME280;5897;42.640;23.310;2024-02-23T03:27:33;93565.94;;;7.14;79.62
11682;BME280;5897;42.640;23.310;2024-02-23T03:30:00;93547.91;;;7.14;79.21
11682;BME280;5897;42.640;23.310;2024-02-23T03:32:27;93563.66;;;7.32;78.89
11682;BME280;5897;42.640;23.310;2024-02-23T03:34:54;93561.59;;;7.20;79.11
11682;BME280;5897;42.640;23.310;2024-02-23T03:37:22;93550.78;;;7.23;79.40
11682;BME280;5897;42.640;23.310;2024-02-23T03:39:47;93552.19;;;7.31;78.98
11682;BME280;5897;42.640;23.310;2024-02-23T03:42:14;93556.50;;;7.25;78.96
11682;BME280;5897;42.640;23.310;2024-02-23T03:44:41;93550.63;;;7.11;79.71
11682;BME280;5897;42.640;23.310;2024-02-23T03:47:08;93551.41;;;7.11;80.63
11682;BME280;5897;42.640;23.310;2024-02-23T03:49:34;93548.78;;;7.27;80.06
11682;BME280;5897;42.640;23.310;2024-02-23T03:52:01;93559.75;;;6.97;81.14
11682;BME280;5897;42.640;23.310;2024-02-23T03:54:29;93553.03;;;6.86;82.20
11682;BME280;5897;42.640;23.310;2024-02-23T03:56:56;93500.28;;;6.76;80.95
11682;BME280;5897;42.640;23.310;2024-02-23T03:59:23;93543.34;;;7.11;80.68
11682;BME280;5897;42.640;23.310;2024-02-23T04:01:50;93540.38;;;6.86;82.25
11682;BME280;5897;42.640;23.310;2024-02-23T04:04:17;93564.47;;;6.90;82.77
11682;BME280;5897;42.640;23.310;2024-02-23T04:06:43;93550.56;;;6.95;83.04
11682;BME280;5897;42.640;23.310;2024-02-23T04:09:10;93562.34;;;7.01;85.32
11682;BME280;5897;42.640;23.310;2024-02-23T04:11:38;93553.94;;;7.18;84.35
11682;BME280;5897;42.640;23.310;2024-02-23T04:14:05;93561.66;;;7.16;84.51
11682;BME280;5897;42.640;23.310;2024-02-23T04:16:31;93566.81;;;7.27;88.10
11682;BME280;5897;42.640;23.310;2024-02-23T04:18:58;93565.38;;;7.22;85.78
11682;BME280;5897;42.640;23.310;2024-02-23T04:21:25;93564.97;;;7.24;85.18
11682;BME280;5897;42.640;23.310;2024-02-23T04:23:52;93580.13;;;7.14;86.42
11682;BME280;5897;42.640;23.310;2024-02-23T04:26:18;93565.25;;;7.10;85.96
11682;BME280;5897;42.640;23.310;2024-02-23T04:28:46;93565.31;;;7.06;85.42
11682;BME280;5897;42.640;23.310;2024-02-23T04:31:13;93573.91;;;6.98;84.61
11682;BME280;5897;42.640;23.310;2024-02-23T04:33:40;93573.84;;;7.01;83.56
11682;BME280;5897;42.640;23.310;2024-02-23T04:36:07;93565.78;;;7.01;82.78
11682;BME280;5897;42.640;23.310;2024-02-23T04:38:34;93573.28;;;6.90;81.91
11682;BME280;5897;42.640;23.310;2024-02-23T04:41:02;93581.28;;;6.48;84.39
11682;BME280;5897;42.640;23.310;2024-02-23T04:43:29;93577.81;;;6.51;84.90
11682;BME280;5897;42.640;23.310;2024-02-23T04:45:57;93571.31;;;6.48;84.87
11682;BME280;5897;42.640;23.310;2024-02-23T04:48:24;93573.81;;;6.59;84.28
11682;BME280;5897;42.640;23.310;2024-02-23T04:50:51;93575.00;;;6.58;83.64
11682;BME280;5897;42.640;23.310;2024-02-23T04:53:18;93578.09;;;6.56;84.10
11682;BME280;5897;42.640;23.310;2024-02-23T04:55:44;93546.53;;;6.41;84.28
11682;BME280;5897;42.640;23.310;2024-02-23T04:58:11;93553.41;;;6.65;83.51
11682;BME280;5897;42.640;23.310;2024-02-23T05:00:38;93581.19;;;6.55;83.83
11682;BME280;5897;42.640;23.310;2024-02-23T05:03:06;93578.91;;;6.53;84.18
11682;BME280;5897;42.640;23.310;2024-02-23T05:05:33;93574.53;;;6.63;83.39
11682;BME280;5897;42.640;23.310;2024-02-23T05:07:59;93599.38;;;6.90;81.79
11682;BME280;5897;42.640;23.310;2024-02-23T05:10:26;93584.22;;;6.57;82.31
11682;BME280;5897;42.640;23.310;2024-02-23T05:12:53;93588.75;;;6.37;83.75
11682;BME280;5897;42.640;23.310;2024-02-23T05:15:20;93596.47;;;6.58;83.04
11682;BME280;5897;42.640;23.310;2024-02-23T05:17:47;93587.50;;;6.45;83.47
11682;BME280;5897;42.640;23.310;2024-02-23T05:20:15;93608.84;;;6.52;83.47
11682;BME280;5897;42.640;23.310;2024-02-23T05:22:42;93605.28;;;6.58;83.00
11682;BME280;5897;42.640;23.310;2024-02-23T05:25:08;93618.81;;;6.51;83.22
11682;BME280;5897;42.640;23.310;2024-02-23T05:27:35;93619.69;;;6.45;83.69
11682;BME280;5897;42.640;23.310;2024-02-23T05:30:03;93609.59;;;6.52;83.11
11682;BME280;5897;42.640;23.310;2024-02-23T05:32:30;93610.66;;;6.58;82.99
11682;BME280;5897;42.640;23.310;2024-02-23T05:34:56;93611.69;;;6.64;83.33
11682;BME280;5897;42.640;23.310;2024-02-23T05:37:24;93604.31;;;6.72;82.45
11682;BME280;5897;42.640;23.310;2024-02-23T05:39:52;93611.31;;;6.85;81.46
11682;BME280;5897;42.640;23.310;2024-02-23T05:42:19;93615.56;;;6.63;81.52
11682;BME280;5897;42.640;23.310;2024-02-23T05:44:46;93603.13;;;6.50;82.45
11682;BME280;5897;42.640;23.310;2024-02-23T05:47:13;93604.19;;;6.56;82.72
11682;BME280;5897;42.640;23.310;2024-02-23T05:49:40;93623.72;;;6.79;81.25
11682;BME280;5897;42.640;23.310;2024-02-23T05:52:07;93620.75;;;6.51;82.69
11682;BME280;5897;42.640;23.310;2024-02-23T05:54:36;93601.13;;;6.54;82.89
11682;BME280;5897;42.640;23.310;2024-02-23T05:57:03;93617.19;;;6.34;85.31
11682;BME280;5897;42.640;23.310;2024-02-23T05:59:30;93614.38;;;6.41;84.49
11682;BME280;5897;42.640;23.310;2024-02-23T06:01:57;93635.72;;;6.48;83.82
11682;BME280;5897;42.640;23.310;2024-02-23T06:04:24;93631.06;;;6.75;83.94
11682;BME280;5897;42.640;23.310;2024-02-23T06:06:50;93629.56;;;6.97;83.32
11682;BME280;5897;42.640;23.310;2024-02-23T06:09:17;93636.72;;;7.04;83.01
11682;BME280;5897;42.640;23.310;2024-02-23T06:11:46;93634.59;;;7.15;82.83
11682;BME280;5897;42.640;23.310;2024-02-23T06:14:12;93642.69;;;7.34;82.42
11682;BME280;5897;42.640;23.310;2024-02-23T06:16:39;93616.63;;;7.70;79.13
11682;BME280;5897;42.640;23.310;2024-02-23T06:19:06;93629.59;;;7.75;78.51
11682;BME280;5897;42.640;23.310;2024-02-23T06:21:33;93648.22;;;7.66;78.46
11682;BME280;5897;42.640;23.310;2024-02-23T06:23:59;93636.63;;;7.69;79.37
11682;BME280;5897;42.640;23.310;2024-02-23T06:26:26;93635.97;;;8.01;78.03
11682;BME280;5897;42.640;23.310;2024-02-23T06:28:54;93633.97;;;8.05;77.47
11682;BME280;5897;42.640;23.310;2024-02-23T06:31:21;93648.25;;;8.21;76.51
11682;BME280;5897;42.640;23.310;2024-02-23T06:33:48;93653.59;;;8.41;76.00
11682;BME280;5897;42.640;23.310;2024-02-23T06:36:16;93651.91;;;8.63;75.56
11682;BME280;5897;42.640;23.310;2024-02-23T06:38:43;93645.53;;;8.89;73.70
11682;BME280;5897;42.640;23.310;2024-02-23T06:41:11;93633.91;;;9.08;73.09
11682;BME280;5897;42.640;23.310;2024-02-23T06:43:37;93640.28;;;9.14;71.93
11682;BME280;5897;42.640;23.310;2024-02-23T06:46:07;93654.13;;;9.16;71.99
11682;BME280;5897;42.640;23.310;2024-02-23T06:48:34;93614.25;;;9.23;71.27
11682;BME280;5897;42.640;23.310;2024-02-23T06:51:02;93654.97;;;9.41;70.79
11682;BME280;5897;42.640;23.310;2024-02-23T06:53:29;93654.09;;;9.60;69.94
11682;BME280;5897;42.640;23.310;2024-02-23T06:55:55;93642.16;;;9.74;68.41
11682;BME280;5897;42.640;23.310;2024-02-23T06:58:24;93654.16;;;9.85;67.98
11682;BME280;5897;42.640;23.310;2024-02-23T07:00:50;93644.00;;;10.05;67.50
11682;BME280;5897;42.640;23.310;2024-02-23T07:03:19;93640.66;;;10.26;66.58
11682;BME280;5897;42.640;23.310;2024-02-23T07:05:48;93660.22;;;10.30;66.79
11682;BME280;5897;42.640;23.310;2024-02-23T07:08:21;93659.47;;;10.42;65.73
11682;BME280;5897;42.640;23.310;2024-02-23T07:10:53;93655.16;;;10.45;65.46
11682;BME280;5897;42.640;23.310;2024-02-23T07:13:43;93646.00;;;10.67;64.21
11682;BME280;5897;42.640;23.310;2024-02-23T07:16:29;93635.19;;;10.67;63.57
11682;BME280;5897;42.640;23.310;2024-02-23T07:19:01;93642.75;;;10.72;63.39
11682;BME280;5897;42.640;23.310;2024-02-23T07:22:04;93624.38;;;10.67;63.53
11682;BME280;5897;42.640;23.310;2024-02-23T07:24:39;93607.31;;;10.45;64.45
11682;BME280;5897;42.640;23.310;2024-02-23T07:27:23;93650.63;;;10.67;63.93
11682;BME280;5897;42.640;23.310;2024-02-23T07:29:55;93606.97;;;10.43;64.63
11682;BME280;5897;42.640;23.310;2024-02-23T07:32:25;93643.72;;;10.78;63.48
11682;BME280;5897;42.640;23.310;2024-02-23T07:37:48;93619.25;;;10.94;61.98
11682;BME280;5897;42.640;23.310;2024-02-23T07:40:17;93629.56;;;10.74;62.90
11682;BME280;5897;42.640;23.310;2024-02-23T07:42:57;93627.41;;;10.69;62.90
11682;BME280;5897;42.640;23.310;2024-02-23T07:45:44;93622.72;;;10.95;63.65
11682;BME280;5897;42.640;23.310;2024-02-23T07:48:11;93642.06;;;10.93;63.70
11682;BME280;5897;42.640;23.310;2024-02-23T07:50:42;93653.19;;;11.08;63.58
11682;BME280;5897;42.640;23.310;2024-02-23T07:53:12;93619.34;;;11.16;63.44
11682;BME280;5897;42.640;23.310;2024-02-23T07:55:41;93632.97;;;11.12;64.86
11682;BME280;5897;42.640;23.310;2024-02-23T07:58:08;93650.78;;;11.22;64.35
11682;BME280;5897;42.640;23.310;2024-02-23T08:00:34;93643.22;;;11.51;64.13
11682;BME280;5897;42.640;23.310;2024-02-23T08:03:04;93649.78;;;11.75;62.79
11682;BME280;5897;42.640;23.310;2024-02-23T08:05:31;93634.91;;;11.80;62.41
11682;BME280;5897;42.640;23.310;2024-02-23T08:07:59;93644.91;;;11.70;63.38
11682;BME280;5897;42.640;23.310;2024-02-23T08:10:26;93645.03;;;11.67;62.28
11682;BME280;5897;42.640;23.310;2024-02-23T08:12:53;93645.63;;;11.49;63.33
11682;BME280;5897;42.640;23.310;2024-02-23T08:15:19;93648.13;;;11.44;63.11
11682;BME280;5897;42.640;23.310;2024-02-23T08:17:46;93625.88;;;11.27;64.02
11682;BME280;5897;42.640;23.310;2024-02-23T08:20:15;93623.81;;;10.97;65.24
11682;BME280;5897;42.640;23.310;2024-02-23T08:22:42;93629.84;;;11.01;65.38
11682;BME280;5897;42.640;23.310;2024-02-23T08:25:10;93636.78;;;11.02;66.09
11682;BME280;5897;42.640;23.310;2024-02-23T08:27:37;93622.22;;;11.21;66.06
11682;BME280;5897;42.640;23.310;2024-02-23T08:30:05;93627.44;;;11.16;66.71
11682;BME280;5897;42.640;23.310;2024-02-23T08:32:44;93634.81;;;11.37;66.61
11682;BME280;5897;42.640;23.310;2024-02-23T08:35:10;93623.22;;;11.48;66.98
11682;BME280;5897;42.640;23.310;2024-02-23T08:37:37;93608.34;;;11.87;65.71
11682;BME280;5897;42.640;23.310;2024-02-23T08:40:05;93633.56;;;12.27;63.88
11682;BME280;5897;42.640;23.310;2024-02-23T08:42:34;93626.38;;;12.63;62.54
11682;BME280;5897;42.640;23.310;2024-02-23T08:45:01;93641.47;;;12.82;60.75
11682;BME280;5897;42.640;23.310;2024-02-23T08:47:27;93639.88;;;12.94;60.71
11682;BME280;5897;42.640;23.310;2024-02-23T08:49:57;93641.56;;;13.00;61.10
11682;BME280;5897;42.640;23.310;2024-02-23T08:52:24;93645.78;;;13.01;60.33
11682;BME280;5897;42.640;23.310;2024-02-23T08:54:51;93637.66;;;13.01;60.06
11682;BME280;5897;42.640;23.310;2024-02-23T08:57:17;93634.44;;;13.42;58.86
11682;BME280;5897;42.640;23.310;2024-02-23T08:59:49;93639.41;;;13.71;57.76
11682;BME280;5897;42.640;23.310;2024-02-23T09:02:16;93639.72;;;13.91;56.89
11682;BME280;5897;42.640;23.310;2024-02-23T09:04:44;93627.94;;;13.76;57.62
11682;BME280;5897;42.640;23.310;2024-02-23T09:07:11;93636.09;;;14.21;57.91
11682;BME280;5897;42.640;23.310;2024-02-23T09:09:38;93635.09;;;14.51;54.27
11682;BME280;5897;42.640;23.310;2024-02-23T09:12:05;93615.22;;;14.77;55.38
11682;BME280;5897;42.640;23.310;2024-02-23T09:14:36;93626.84;;;15.10;52.30
11682;BME280;5897;42.640;23.310;2024-02-23T09:17:06;93629.63;;;15.34;50.88
11682;BME280;5897;42.640;23.310;2024-02-23T09:19:33;93618.25;;;15.59;48.67
11682;BME280;5897;42.640;23.310;2024-02-23T09:22:00;93604.00;;;15.40;48.73
11682;BME280;5897;42.640;23.310;2024-02-23T09:24:27;93612.56;;;15.71;48.15
11682;BME280;5897;42.640;23.310;2024-02-23T09:26:54;93626.56;;;15.79;46.70
11682;BME280;5897;42.640;23.310;2024-02-23T09:29:21;93613.06;;;15.99;46.58
11682;BME280;5897;42.640;23.310;2024-02-23T09:31:48;93604.53;;;16.20;45.55
11682;BME280;5897;42.640;23.310;2024-02-23T09:34:16;93544.03;;;16.02;45.04
11682;BME280;5897;42.640;23.310;2024-02-23T09:36:43;93594.22;;;16.53;44.20
11682;BME280;5897;42.640;23.310;2024-02-23T09:39:13;93612.56;;;16.67;43.65
11682;BME280;5897;42.640;23.310;2024-02-23T09:41:39;93615.66;;;16.46;41.93
11682;BME280;5897;42.640;23.310;2024-02-23T09:44:08;93614.81;;;16.69;42.74
11682;BME280;5897;42.640;23.310;2024-02-23T09:46:36;93572.66;;;16.84;42.64
11682;BME280;5897;42.640;23.310;2024-02-23T09:49:03;93602.94;;;17.21;41.85
11682;BME280;5897;42.640;23.310;2024-02-23T09:51:34;93608.19;;;17.39;40.15
11682;BME280;5897;42.640;23.310;2024-02-23T09:54:02;93595.19;;;17.54;39.75
11682;BME280;5897;42.640;23.310;2024-02-23T09:56:29;93590.16;;;17.47;40.39
11682;BME280;5897;42.640;23.310;2024-02-23T09:59:01;93581.00;;;17.50;39.68
11682;BME280;5897;42.640;23.310;2024-02-23T10:01:29;93590.69;;;17.71;40.60
11682;BME280;5897;42.640;23.310;2024-02-23T10:04:00;93583.06;;;18.00;39.34
11682;BME280;5897;42.640;23.310;2024-02-23T10:06:28;93577.03;;;18.42;37.30
11682;BME280;5897;42.640;23.310;2024-02-23T10:08:56;93569.19;;;18.55;37.84
11682;BME280;5897;42.640;23.310;2024-02-23T10:11:24;93566.41;;;18.80;36.69
11682;BME280;5897;42.640;23.310;2024-02-23T10:13:51;93571.00;;;18.94;37.04
11682;BME280;5897;42.640;23.310;2024-02-23T10:16:18;93561.91;;;19.19;34.83
11682;BME280;5897;42.640;23.310;2024-02-23T10:18:47;93580.78;;;19.12;35.27
11682;BME280;5897;42.640;23.310;2024-02-23T10:21:14;93556.59;;;19.05;35.13
11682;BME280;5897;42.640;23.310;2024-02-23T10:23:41;93576.78;;;18.40;36.38
11682;BME280;5897;42.640;23.310;2024-02-23T10:26:10;93563.13;;;18.45;36.11
11682;BME280;5897;42.640;23.310;2024-02-23T10:28:37;93548.47;;;18.79;36.05
11682;BME280;5897;42.640;23.310;2024-02-23T10:31:04;93559.03;;;18.92;34.88
11682;BME280;5897;42.640;23.310;2024-02-23T10:33:31;93556.06;;;18.33;35.38
11682;BME280;5897;42.640;23.310;2024-02-23T10:36:00;93560.88;;;18.44;35.88
11682;BME280;5897;42.640;23.310;2024-02-23T10:38:27;93539.25;;;18.77;35.06
11682;BME280;5897;42.640;23.310;2024-02-23T10:40:58;93548.03;;;19.23;35.60
11682;BME280;5897;42.640;23.310;2024-02-23T10:43:34;93522.91;;;19.24;34.94
11682;BME280;5897;42.640;23.310;2024-02-23T10:46:04;93533.28;;;19.68;33.77
11682;BME280;5897;42.640;23.310;2024-02-23T10:48:38;93548.44;;;19.58;33.30
11682;BME280;5897;42.640;23.310;2024-02-23T10:51:09;93551.13;;;20.11;32.89
11682;BME280;5897;42.640;23.310;2024-02-23T10:53:37;93528.72;;;20.45;31.68
11682;BME280;5897;42.640;23.310;2024-02-23T10:56:06;93542.94;;;20.99;31.62
11682;BME280;5897;42.640;23.310;2024-02-23T10:58:35;93545.34;;;21.35;30.27
11682;BME280;5897;42.640;23.310;2024-02-23T11:01:07;93533.22;;;20.70;30.52
11682;BME280;5897;42.640;23.310;2024-02-23T11:03:36;93536.44;;;20.47;31.68
11682;BME280;5897;42.640;23.310;2024-02-23T11:06:06;93522.19;;;21.03;31.05
11682;BME280;5897;42.640;23.310;2024-02-23T11:08:33;93527.72;;;20.54;30.39
11682;BME280;5897;42.640;23.310;2024-02-23T11:11:11;93493.81;;;18.54;32.44
11682;BME280;5897;42.640;23.310;2024-02-23T11:14:13;93519.16;;;18.23;33.94
11682;BME280;5897;42.640;23.310;2024-02-23T11:16:51;93512.81;;;18.68;33.94
11682;BME280;5897;42.640;23.310;2024-02-23T11:19:18;93501.50;;;19.28;32.63
11682;BME280;5897;42.640;23.310;2024-02-23T11:21:53;93509.91;;;19.78;31.77
11682;BME280;5897;42.640;23.310;2024-02-23T11:28:26;93452.00;;;21.19;29.39
11682;BME280;5897;42.640;23.310;2024-02-23T11:30:47;93492.97;;;21.06;29.66
11682;BME280;5897;42.640;23.310;2024-02-23T11:33:14;93489.25;;;21.03;30.26
11682;BME280;5897;42.640;23.310;2024-02-23T11:36:04;93526.59;;;22.02;28.17
11682;BME280;5897;42.640;23.310;2024-02-23T11:38:59;93453.34;;;22.34;27.40
11682;BME280;5897;42.640;23.310;2024-02-23T11:41:31;93458.84;;;22.93;26.11
11682;BME280;5897;42.640;23.310;2024-02-23T11:44:12;93482.00;;;23.51;26.21
11682;BME280;5897;42.640;23.310;2024-02-23T11:46:58;93485.34;;;24.05;24.73
11682;BME280;5897;42.640;23.310;2024-02-23T11:49:44;93485.25;;;24.29;24.73
11682;BME280;5897;42.640;23.310;2024-02-23T11:52:33;93366.19;;;23.51;24.68
11682;BME280;5897;42.640;23.310;2024-02-23T11:55:11;93484.09;;;24.87;24.00
11682;BME280;5897;42.640;23.310;2024-02-23T12:01:15;93481.25;;;25.19;23.87
11682;BME280;5897;42.640;23.310;2024-02-23T12:03:49;93444.13;;;23.33;25.04
11682;BME280;5897;42.640;23.310;2024-02-23T12:06:32;93406.34;;;23.28;25.14
11682;BME280;5897;42.640;23.310;2024-02-23T12:09:12;93388.44;;;23.16;24.90
11682;BME280;5897;42.640;23.310;2024-02-23T12:11:48;93426.97;;;23.64;24.57
11682;BME280;5897;42.640;23.310;2024-02-23T12:14:24;93436.00;;;24.01;24.12
11682;BME280;5897;42.640;23.310;2024-02-23T12:20:37;93467.34;;;20.59;28.67
11682;BME280;5897;42.640;23.310;2024-02-23T12:23:04;93475.13;;;19.42;29.74
11682;BME280;5897;42.640;23.310;2024-02-23T12:25:34;93451.63;;;20.27;29.56
11682;BME280;5897;42.640;23.310;2024-02-23T12:33:52;93408.06;;;22.88;25.10
11682;BME280;5897;42.640;23.310;2024-02-23T12:36:23;93429.03;;;22.43;25.86
11682;BME280;5897;42.640;23.310;2024-02-23T12:38:50;93420.34;;;22.87;25.72
11682;BME280;5897;42.640;23.310;2024-02-23T12:41:20;93379.38;;;23.21;25.58
11682;BME280;5897;42.640;23.310;2024-02-23T12:43:46;93419.13;;;23.86;25.03
11682;BME280;5897;42.640;23.310;2024-02-23T12:46:13;93403.63;;;23.65;24.79
11682;BME280;5897;42.640;23.310;2024-02-23T12:48:40;93417.25;;;23.94;23.63
11682;BME280;5897;42.640;23.310;2024-02-23T12:51:08;93388.19;;;24.25;23.12
11682;BME280;5897;42.640;23.310;2024-02-23T12:53:37;93379.25;;;23.50;23.49
11682;BME280;5897;42.640;23.310;2024-02-23T12:56:05;93403.47;;;23.57;24.31
11682;BME280;5897;42.640;23.310;2024-02-23T12:58:33;93419.06;;;23.92;23.44
11682;BME280;5897;42.640;23.310;2024-02-23T13:01:00;93425.44;;;23.63;23.25
11682;BME280;5897;42.640;23.310;2024-02-23T13:03:26;93401.94;;;23.19;24.14
11682;BME280;5897;42.640;23.310;2024-02-23T13:05:54;93399.00;;;23.36;24.21
11682;BME280;5897;42.640;23.310;2024-02-23T13:08:21;93417.41;;;23.65;23.95
11682;BME280;5897;42.640;23.310;2024-02-23T13:10:52;93401.97;;;23.93;23.54
11682;BME280;5897;42.640;23.310;2024-02-23T13:13:22;93396.94;;;24.42;22.57
11682;BME280;5897;42.640;23.310;2024-02-23T13:15:53;93391.41;;;25.12;21.74
11682;BME280;5897;42.640;23.310;2024-02-23T13:18:20;93395.69;;;25.73;21.18
11682;BME280;5897;42.640;23.310;2024-02-23T13:20:47;93399.38;;;26.01;21.18
11682;BME280;5897;42.640;23.310;2024-02-23T13:23:13;93390.72;;;26.46;21.05
11682;BME280;5897;42.640;23.310;2024-02-23T13:25:42;93395.28;;;25.69;22.02
11682;BME280;5897;42.640;23.310;2024-02-23T13:28:11;93413.63;;;25.20;21.29
11682;BME280;5897;42.640;23.310;2024-02-23T13:30:38;93421.13;;;24.04;23.41
11682;BME280;5897;42.640;23.310;2024-02-23T13:33:05;93415.09;;;24.37;22.76